• Join FlightAware (Why Join?)
  • Login
  • US Flag 
07:16PM EST


 

Airport Tracker/Info


-or-


 

Live Flight TrackerFlight Track Log ✈ ASA152 ✈ 06-May-2012 ✈ PAOT / OTZ - PANC

Flight Track Log - Related Links

Times and Time Zones

All times are in EDT time to prevent confusion due to time zone crossing. See the ASA152 flight status page for this flight to view local times or setup timezone preferences in your user account.

Time Position Orientation Groundspeed Altitude Reporting Facility
EDT Latitude Longitude Course Direction KTS MPH feet Rate Location/Type
06:42PM 66.7833 -162.2500 130° Southeast 250 288 9,300  Level Anchorage Center
06:47PM 66.4500 -161.2667 125° Southeast 410 472 23,300 2,640 Climbing Anchorage Center
06:48PM 66.3833 -161.0333 134° Southeast 430 495 25,300 2,220 Climbing Anchorage Center
06:49PM 66.3000 -160.8167 127° Southeast 430 495 27,800 2,400 Climbing Anchorage Center
06:50PM 66.2333 -160.6000 131° Southeast 420 483 30,200 1,920 Climbing Anchorage Center
06:51PM 66.1500 -160.3667 133° Southeast 420 483 31,700 1,380 Climbing Anchorage Center
06:52PM 66.0667 -160.1500 127° Southeast 430 495 33,000 600 Climbing Anchorage Center
06:53PM 66.0000 -159.9333 133° Southeast 430 495 33,000  Level Anchorage Center
06:54PM 65.9167 -159.7167 133° Southeast 430 495 33,000  Level Anchorage Center
06:55PM 65.8333 -159.5000 133° Southeast 420 483 33,000  Level Anchorage Center
06:56PM 65.7500 -159.2833 133° Southeast 440 506 33,000  Level Anchorage Center
06:57PM 65.6667 -159.0667 131° Southeast 430 495 33,000  Level Anchorage Center
06:58PM 65.5833 -158.8333 135° Southeast 420 483 33,000  Level Anchorage Center
06:59PM 65.5000 -158.6333 129° Southeast 420 483 33,000  Level Anchorage Center
07:00PM 65.4333 -158.4333 133° Southeast 420 483 33,000  Level Anchorage Center
07:01PM 65.3500 -158.2167 135° Southeast 420 483 33,000  Level Anchorage Center
07:02PM 65.2667 -158.0167 135° Southeast 420 483 33,000  Level Anchorage Center
07:03PM 65.1833 -157.8167 135° Southeast 420 483 33,000  Level Anchorage Center
07:04PM 65.1000 -157.6167 135° Southeast 420 483 33,000  Level Anchorage Center
07:05PM 65.0167 -157.4167 134° Southeast 420 483 33,000  Level Anchorage Center
07:06PM 64.9333 -157.2167 132° Southeast 420 483 33,000  Level Anchorage Center
07:07PM 64.8500 -157.0000 133° Southeast 420 483 33,000  Level Anchorage Center
07:08PM 64.7833 -156.8333 134° Southeast 410 472 33,000  Level Anchorage Center
07:09PM 64.7000 -156.6333 134° Southeast 410 472 33,000  Level Anchorage Center
07:10PM 64.6167 -156.4333 134° Southeast 410 472 33,000  Level Anchorage Center
07:11PM 64.5333 -156.2333 134° Southeast 420 483 33,000  Level Anchorage Center
07:12PM 64.4500 -156.0333 136° Southeast 410 472 33,000  Level Anchorage Center
07:13PM 64.3667 -155.8500 136° Southeast 410 472 33,000  Level Anchorage Center
07:14PM 64.2833 -155.6667 134° Southeast 420 483 33,000  Level Anchorage Center
07:16PM 64.2000 -155.4667 136° Southeast 420 483 33,000  Level Anchorage Center
07:17PM 64.1167 -155.2833 136° Southeast 420 483 33,000  Level Anchorage Center
07:18PM 64.0333 -155.1000 136° Southeast 420 483 33,000  Level Anchorage Center
07:19PM 63.9500 -154.9167 141° Southeast 420 483 33,000  Level Anchorage Center
07:20PM 63.8500 -154.7333 136° Southeast 420 483 33,000  Level Anchorage Center
07:21PM 63.7667 -154.5500 132° Southeast 410 472 33,000  Level Anchorage Center
07:22PM 63.7000 -154.3833 136° Southeast 400 460 33,000  Level Anchorage Center
07:23PM 63.6167 -154.2000 138° Southeast 410 472 33,000  Level Anchorage Center
07:24PM 63.5333 -154.0333 135° Southeast 400 460 33,000  Level Anchorage Center
07:25PM 63.4500 -153.8500 141° Southeast 410 472 33,000  Level Anchorage Center
07:26PM 63.3500 -153.6667 138° Southeast 410 472 33,000  Level Anchorage Center
07:28PM 63.1833 -153.3333 135° Southeast 420 483 33,000  Level Anchorage Center
07:29PM 63.1000 -153.1500 138° Southeast 410 472 33,000  Level Anchorage Center
07:30PM 63.0167 -152.9833 138° Southeast 430 495 33,000  Level Anchorage Center
07:31PM 62.9333 -152.8167 137° Southeast 400 460 33,000  Level Anchorage Center
07:34PM 62.6833 -152.3167 137° Southeast 400 460 33,000  Level Anchorage Center
07:35PM 62.6000 -152.1500 142° Southeast 370 426 33,000  Level Anchorage Center
07:36PM 62.5000 -151.9833 137° Southeast 420 483 33,000  Level Anchorage Center
07:37PM 62.4167 -151.8167 140° Southeast 420 483 33,000 -60 Level Anchorage Center
07:38PM 62.3333 -151.6667 137° Southeast 410 472 32,900 -1,800 Descending Anchorage Center
07:39PM 62.2500 -151.5000 139° Southeast 410 472 29,400 -3,780 Descending Anchorage Center
07:40PM 62.1500 -151.3167 140° Southeast 410 472 25,300 -3,540 Descending Anchorage Center
07:41PM 62.0667 -151.1667 140° Southeast 380 437 22,400 -2,940 Descending Anchorage Center
07:42PM 61.9833 -151.0167 140° Southeast 360 414 19,400 -3,000 Descending Anchorage Center
07:43PM 61.9167 -150.9000 148° Southeast 340 391 16,400 -3,000 Descending Anchorage Center
07:50PM 61.2826 -150.0824 150° Southeast  Level FlightAware Approximate
07:51PM 61.1940 -149.9773 207° Southwest  Level FlightAware Approximate
07:52PM 61.1028 -150.0728 349° North  Level Estimated
07:53PM 61.4123 -150.1955 154° Southeast  Level FlightAware Approximate
07:54PM 61.3203 -150.1030 154° Southeast  Level FlightAware Approximate
07:55PM 61.2282 -150.0111 168° South  Level FlightAware Approximate
07:56PM 61.1667 -149.9833 316° Northwest  Level FlightAware Approximate
07:57PM 61.2400 -150.1308 136° Southeast  Level Estimated
07:58PM 61.1667 -149.9833 316° Northwest  Level FlightAware Approximate
07:59PM 61.2400 -150.1308 136° Southeast  Level Estimated
08:00PM 61.1667 -149.9833 316° Northwest  Level FlightAware Approximate
08:01PM 61.2400 -150.1308 136° Southeast  Level Estimated
08:02PM 61.1667 -149.9833 136° Southeast  Level FlightAware Approximate